Ontonagon, MI (49953)

12:49 AM EDT on September 22, 2014 (GMT -0400)
Mountain View Lodges, Silver City, MI / Porcupine Mountains Area | Change Station
CLOSE
Current Station
Personal Weather Station
Location: Ontonagon, MI
Elevation: 587 ft
Nearby Weather Stations
Active Advisory: Frost Advisory

Elev 587 ft 46.83 °N, 89.58 °W | Updated 9 minutes ago

Clear
Clear
42.9 °F
Feels Like 43 °F
N
0.0
Wind Variable Wind from ENE
Gusts 0.0 mph

Today
High -- | Low -- °F
--% Chance of Precip.
Yesterday
High -- | Low -- °F
Precip. -- in
7:44 AM 7:54 PM
Waning Crescent, 4% visible
Pressure 30.15 in
Visibility 10.0 miles
Clouds Clear
Windchill 43 °F
Dew Point 42 °F
Humidity 96%
Rainfall 0.00 in
Snow Depth Not available.
UV 0 out of 12
Pollen .60 out of 12
Air Quality Not available.
Flu Activity Not available.
METAR KIWD 220435Z 26004KT 10SM CLR 04/03 A3015 RMK AO1

More Conditions Fewer Conditions

Pressure 30.15 in
Visibility 10.0 miles
Clouds Clear
Windchill 43 °F
Dew Point 42 °F
Humidity 96%
Rainfall 0.00 in
Snow Depth Not available.
UV 0 out of 12
Pollen .60 out of 12
Air Quality Not available.
Flu Activity Not available.
METAR KIWD 220435Z 26004KT 10SM CLR 04/03 A3015 RMK AO1

More Conditions Fewer Conditions

10-Day Weather Forecast

Almanac

Astronomy

Sep. 22, 2014 Rise Set
Actual Time 7:44 AM EDT 7:54 PM EDT
Civil Twilight 7:13 AM EDT 8:25 PM EDT
Nautical Twilight 6:38 AM EDT 9:00 PM EDT
Astronomical Twilight 6:01 AM EDT 9:37 PM EDT
Moon 6:08 AM EDT 7:04 PM EDT
Length of Visible Light 13h 11m
Length of Day
12h 10m
Tomorrow will be 3m 19s shorter.
Waning Crescent, 4% of the Moon is Illuminated
Today
Waning Crescent
Sep 24
New
Oct 1
First Quarter
Oct 8
Full
Oct 15
Last Quarter

Today's Extremes

State Highs State Lows

Community

WunderPhotos

Upload Photos

1,755,391 photos uploaded!

Nearby

Snow Depth

Station Depth Elevation
No new snow has been reported.

Earthquake Activity

City Distance Mag. Time & Date
No recent earthquake activity has been reported nearby.
Minimum magnitude displayed is 2.5.

Coastal Water Temperatures

Place Temperature
No Stations Reporting

Nearby Weather Stations